Time;durP1;ratioP1;P1;durP2;ratioP2;P2;SDS_P1;SDS_P2;PMS_P1;PMS_P2;Temp;Humidity;BMP_temperature;BMP_pressure;BME280_temperature;BME280_humidity;BME280_pressure;Samples;Min_cycle;Max_cycle;Signal;HPM_P1;HPM_P2
2021/03/20 00:01:05;;;;;;;;;;;20.00;28.00;;;;;;482532;246;998;-68
2021/03/20 00:03:06;;;;;;;;;;;20.00;27.90;;;;;;482312;247;1346;-68
2021/03/20 00:05:08;;;;;;;;;;;20.10;27.90;;;;;;482424;246;1033;-68
2021/03/20 00:07:09;;;;;;;;;;;20.00;27.80;;;;;;482385;246;1167;-68
2021/03/20 00:09:10;;;;;;;;;;;20.00;27.80;;;;;;482466;246;2162;-68
2021/03/20 00:11:11;;;;;;;;;;;20.00;27.80;;;;;;482362;246;986;-68
2021/03/20 00:13:13;;;;;;;;;;;19.90;27.80;;;;;;482461;247;988;-68
2021/03/20 00:15:14;;;;;;;;;;;19.90;27.90;;;;;;482388;247;1187;-68
2021/03/20 00:17:15;;;;;;;;;;;19.90;27.90;;;;;;482405;246;1089;-68
2021/03/20 00:19:16;;;;;;;;;;;19.90;27.90;;;;;;482482;246;1088;-68
2021/03/20 00:21:19;;;;;;;;;;;19.90;27.90;;;;;;482348;246;1224;-68
2021/03/20 00:23:19;;;;;;;;;;;19.90;27.80;;;;;;482492;247;1514;-68
2021/03/20 00:25:20;;;;;;;;;;;19.80;27.80;;;;;;482367;247;1096;-68
2021/03/20 00:27:22;;;;;;;;;;;19.80;27.80;;;;;;482297;246;1056;-68
2021/03/20 00:29:23;;;;;;;;;;;19.70;27.90;;;;;;482396;246;2145;-68
2021/03/20 00:31:24;;;;;;;;;;;19.80;27.80;;;;;;482368;246;1110;-68
2021/03/20 00:33:26;;;;;;;;;;;19.80;27.80;;;;;;482389;247;996;-69
2021/03/20 00:35:27;;;;;;;;;;;19.90;27.80;;;;;;482450;247;1054;-68
2021/03/20 00:37:28;;;;;;;;;;;19.80;27.80;;;;;;482473;247;1152;-68
2021/03/20 00:39:29;;;;;;;;;;;19.80;27.70;;;;;;482416;246;1083;-69
2021/03/20 00:41:31;;;;;;;;;;;19.70;27.80;;;;;;482579;246;1202;-68
2021/03/20 00:43:32;;;;;;;;;;;19.70;27.90;;;;;;482655;245;1132;-68
2021/03/20 00:45:33;;;;;;;;;;;19.70;27.80;;;;;;482351;246;1188;-68
2021/03/20 00:47:34;;;;;;;;;;;19.70;27.80;;;;;;482378;246;1168;-68
2021/03/20 00:49:36;;;;;;;;;;;19.70;27.70;;;;;;482447;247;2188;-68
2021/03/20 00:51:37;;;;;;;;;;;19.70;27.70;;;;;;482370;247;1199;-68
2021/03/20 00:53:38;;;;;;;;;;;19.70;27.70;;;;;;482392;246;1488;-68
2021/03/20 00:55:40;;;;;;;;;;;19.60;27.80;;;;;;482537;246;1215;-68
2021/03/20 00:57:41;;;;;;;;;;;19.60;27.90;;;;;;482519;246;1217;-68
2021/03/20 00:59:42;;;;;;;;;;;19.70;27.80;;;;;;482452;246;1000;-68
2021/03/20 01:01:43;;;;;;;;;;;19.70;27.80;;;;;;482467;247;1240;-68
2021/03/20 01:03:45;;;;;;;;;;;19.60;27.80;;;;;;482302;247;1076;-68
2021/03/20 01:05:46;;;;;;;;;;;19.60;27.80;;;;;;482351;247;1328;-68
2021/03/20 01:07:47;;;;;;;;;;;19.70;27.80;;;;;;482365;245;1586;-68
2021/03/20 01:09:49;;;;;;;;;;;19.60;27.70;;;;;;482550;246;2144;-68
2021/03/20 01:11:50;;;;;;;;;;;19.60;27.70;;;;;;482498;246;1188;-68
2021/03/20 01:13:51;;;;;;;;;;;19.70;27.70;;;;;;482403;246;940;-68
2021/03/20 01:15:52;;;;;;;;;;;19.60;27.70;;;;;;482337;245;1125;-68
2021/03/20 01:17:54;;;;;;;;;;;19.60;27.70;;;;;;482507;246;1109;-68
2021/03/20 01:19:55;;;;;;;;;;;19.60;27.70;;;;;;482465;247;1088;-68
2021/03/20 01:21:56;;;;;;;;;;;19.50;27.70;;;;;;482382;247;1074;-68
2021/03/20 01:23:58;;;;;;;;;;;19.50;27.70;;;;;;482461;245;1186;-68
2021/03/20 01:25:59;;;;;;;;;;;19.50;27.70;;;;;;482530;246;1050;-68
2021/03/20 01:28:00;;;;;;;;;;;19.50;27.70;;;;;;482394;246;1044;-68
2021/03/20 01:30:01;;;;;;;;;;;19.60;27.70;;;;;;482362;246;2157;-68
2021/03/20 01:32:03;;;;;;;;;;;19.60;27.70;;;;;;482663;246;1046;-68
2021/03/20 01:34:04;;;;;;;;;;;19.50;27.70;;;;;;482467;246;1060;-68
2021/03/20 01:36:05;;;;;;;;;;;19.50;27.60;;;;;;482424;247;1047;-68
2021/03/20 01:38:06;;;;;;;;;;;19.50;27.70;;;;;;482414;246;1151;-68
2021/03/20 01:40:08;;;;;;;;;;;19.60;27.70;;;;;;482387;247;1140;-68
2021/03/20 01:42:09;;;;;;;;;;;19.60;27.70;;;;;;482354;247;1104;-68
2021/03/20 01:44:10;;;;;;;;;;;19.50;27.70;;;;;;482467;246;1111;-68
2021/03/20 01:46:12;;;;;;;;;;;19.50;27.60;;;;;;482360;244;1287;-68
2021/03/20 01:48:13;;;;;;;;;;;19.50;27.70;;;;;;482469;246;1045;-68
2021/03/20 01:50:14;;;;;;;;;;;19.50;27.70;;;;;;482345;246;2141;-68
2021/03/20 01:52:15;;;;;;;;;;;19.50;27.70;;;;;;482345;246;1061;-68
2021/03/20 01:54:17;;;;;;;;;;;19.50;27.60;;;;;;482321;247;1071;-68
2021/03/20 01:56:18;;;;;;;;;;;19.50;27.60;;;;;;482313;247;1201;-68
2021/03/20 01:58:19;;;;;;;;;;;19.40;27.70;;;;;;482359;245;1033;-68
2021/03/20 02:00:21;;;;;;;;;;;19.40;27.70;;;;;;482490;246;1198;-68
2021/03/20 02:02:22;;;;;;;;;;;19.40;27.70;;;;;;482446;246;1251;-68
2021/03/20 02:04:23;;;;;;;;;;;19.40;27.80;;;;;;482635;246;1042;-68
2021/03/20 02:06:25;;;;;;;;;;;19.40;27.80;;;;;;482359;244;1324;-68
2021/03/20 02:08:26;;;;;;;;;;;19.30;27.80;;;;;;482487;246;1164;-68
2021/03/20 02:10:27;;;;;;;;;;;19.50;27.70;;;;;;482327;247;2189;-68
2021/03/20 02:12:28;;;;;;;;;;;19.40;27.60;;;;;;482380;247;1053;-68
2021/03/20 02:14:30;;;;;;;;;;;19.40;27.60;;;;;;482446;247;1073;-68
2021/03/20 02:16:31;;;;;;;;;;;19.50;27.70;;;;;;482472;246;1152;-68
2021/03/20 02:18:32;;;;;;;;;;;19.50;27.70;;;;;;482482;246;1069;-68
2021/03/20 02:20:34;;;;;;;;;;;19.40;27.70;;;;;;482398;247;1205;-68
2021/03/20 02:22:35;;;;;;;;;;;19.40;27.70;;;;;;482475;246;1102;-68
2021/03/20 02:24:36;;;;;;;;;;;19.40;27.70;;;;;;482477;246;1173;-68
2021/03/20 02:26:37;;;;;;;;;;;19.50;27.70;;;;;;482337;247;1130;-68
2021/03/20 02:28:39;;;;;;;;;;;19.40;27.70;;;;;;482453;247;1070;-68
2021/03/20 02:30:40;;;;;;;;;;;19.40;27.60;;;;;;482401;247;2193;-68
2021/03/20 02:32:41;;;;;;;;;;;19.40;27.70;;;;;;482431;246;1154;-68
2021/03/20 02:34:42;;;;;;;;;;;19.40;27.70;;;;;;482728;246;1129;-69
2021/03/20 02:36:44;;;;;;;;;;;19.40;27.60;;;;;;482501;247;1211;-68
2021/03/20 02:38:45;;;;;;;;;;;19.40;27.70;;;;;;482431;246;1166;-68
2021/03/20 02:40:46;;;;;;;;;;;19.40;27.70;;;;;;482391;246;1034;-68
2021/03/20 02:42:48;;;;;;;;;;;19.40;27.70;;;;;;482291;247;1167;-68
2021/03/20 02:44:49;;;;;;;;;;;19.40;27.70;;;;;;482534;246;1100;-68
2021/03/20 02:46:50;;;;;;;;;;;19.40;27.70;;;;;;482375;245;1328;-68
2021/03/20 02:48:51;;;;;;;;;;;19.40;27.80;;;;;;482443;246;1031;-68
2021/03/20 02:50:53;;;;;;;;;;;19.30;27.80;;;;;;482457;246;2137;-68
2021/03/20 02:52:54;;;;;;;;;;;19.30;27.70;;;;;;482444;246;1064;-68
2021/03/20 02:54:55;;;;;;;;;;;19.40;27.70;;;;;;482443;246;1134;-68
2021/03/20 02:56:57;;;;;;;;;;;19.40;27.70;;;;;;482517;247;1229;-68
2021/03/20 02:58:58;;;;;;;;;;;19.40;27.70;;;;;;482353;246;1054;-68
2021/03/20 03:00:59;;;;;;;;;;;19.30;27.70;;;;;;482418;247;1350;-68
2021/03/20 03:03:00;;;;;;;;;;;19.40;27.70;;;;;;482402;247;1124;-68
2021/03/20 03:05:02;;;;;;;;;;;19.40;27.70;;;;;;482723;247;1152;-68
2021/03/20 03:07:03;;;;;;;;;;;19.40;27.80;;;;;;482559;246;1096;-68
2021/03/20 03:09:04;;;;;;;;;;;19.40;27.70;;;;;;482387;247;1180;-68
2021/03/20 03:11:05;;;;;;;;;;;19.40;27.70;;;;;;482376;247;2203;-68
2021/03/20 03:13:07;;;;;;;;;;;19.30;27.70;;;;;;482447;246;1041;-68
2021/03/20 03:15:08;;;;;;;;;;;19.40;27.70;;;;;;482472;245;1079;-68
2021/03/20 03:17:09;;;;;;;;;;;19.40;27.70;;;;;;482463;247;1049;-68
2021/03/20 03:19:11;;;;;;;;;;;19.40;27.70;;;;;;482383;246;1249;-68
2021/03/20 03:21:12;;;;;;;;;;;19.40;27.70;;;;;;482619;246;1194;-68
2021/03/20 03:23:13;;;;;;;;;;;19.30;27.80;;;;;;482452;246;1024;-68
2021/03/20 03:25:15;;;;;;;;;;;19.40;27.80;;;;;;482372;247;1218;-68
2021/03/20 03:27:16;;;;;;;;;;;19.30;27.70;;;;;;482383;246;1095;-68
2021/03/20 03:29:18;;;;;;;;;;;19.30;27.80;;;;;;482468;246;966;-68
2021/03/20 03:31:19;;;;;;;;;;;19.30;27.70;;;;;;482342;246;2145;-68
2021/03/20 03:33:20;;;;;;;;;;;19.30;27.70;;;;;;482426;246;1183;-68
2021/03/20 03:35:21;;;;;;;;;;;19.40;27.60;;;;;;482412;247;1031;-68
2021/03/20 03:37:23;;;;;;;;;;;19.30;27.60;;;;;;482359;246;1296;-68
2021/03/20 03:39:24;;;;;;;;;;;19.30;27.70;;;;;;482437;246;1141;-68
2021/03/20 03:41:25;;;;;;;;;;;19.30;27.70;;;;;;482301;247;1337;-68
2021/03/20 03:43:26;;;;;;;;;;;19.30;27.60;;;;;;482361;246;1228;-68
2021/03/20 03:45:28;;;;;;;;;;;19.30;27.60;;;;;;482399;247;1059;-68
2021/03/20 03:47:29;;;;;;;;;;;19.30;27.60;;;;;;482459;247;1174;-68
2021/03/20 03:49:30;;;;;;;;;;;19.30;27.60;;;;;;482429;247;1064;-68
2021/03/20 03:51:32;;;;;;;;;;;19.40;27.60;;;;;;482435;246;2148;-68
2021/03/20 03:53:33;;;;;;;;;;;19.30;27.60;;;;;;482504;246;1237;-68
2021/03/20 03:55:34;;;;;;;;;;;19.30;27.60;;;;;;482602;246;1216;-68
2021/03/20 03:57:35;;;;;;;;;;;19.40;27.60;;;;;;482512;246;1148;-68
2021/03/20 03:59:37;;;;;;;;;;;19.40;27.60;;;;;;482403;247;1070;-68
2021/03/20 04:01:38;;;;;;;;;;;19.30;27.60;;;;;;482311;245;1094;-68
2021/03/20 04:03:39;;;;;;;;;;;19.30;27.60;;;;;;482454;246;1204;-68
2021/03/20 04:05:40;;;;;;;;;;;19.20;27.60;;;;;;482418;247;1200;-68
2021/03/20 04:07:42;;;;;;;;;;;19.30;27.60;;;;;;482415;247;1108;-68
2021/03/20 04:09:43;;;;;;;;;;;19.20;27.60;;;;;;482330;247;1241;-68
2021/03/20 04:11:44;;;;;;;;;;;19.20;27.70;;;;;;482472;246;2184;-68
2021/03/20 04:13:46;;;;;;;;;;;19.20;27.70;;;;;;482515;246;1038;-69
2021/03/20 04:15:47;;;;;;;;;;;19.20;27.70;;;;;;482463;245;1074;-68
2021/03/20 04:17:48;;;;;;;;;;;19.20;27.70;;;;;;482425;246;1105;-68
2021/03/20 04:19:49;;;;;;;;;;;19.20;27.70;;;;;;482457;245;1062;-68
2021/03/20 04:21:51;;;;;;;;;;;19.20;27.80;;;;;;482384;244;1373;-68
2021/03/20 04:23:52;;;;;;;;;;;19.20;27.70;;;;;;482415;247;1070;-68
2021/03/20 04:25:53;;;;;;;;;;;19.20;27.80;;;;;;482610;247;1198;-68
2021/03/20 04:27:55;;;;;;;;;;;19.20;27.70;;;;;;482489;246;1231;-67
2021/03/20 04:29:56;;;;;;;;;;;19.20;27.80;;;;;;482552;247;1122;-68
2021/03/20 04:31:57;;;;;;;;;;;19.10;27.80;;;;;;482338;246;2148;-68
2021/03/20 04:33:58;;;;;;;;;;;19.20;27.80;;;;;;482304;246;1175;-68
2021/03/20 04:36:00;;;;;;;;;;;19.20;27.80;;;;;;482613;247;991;-68
2021/03/20 04:38:01;;;;;;;;;;;19.20;27.80;;;;;;482407;247;1226;-68
2021/03/20 04:40:02;;;;;;;;;;;19.20;27.80;;;;;;482380;246;1175;-68
2021/03/20 04:42:04;;;;;;;;;;;19.20;27.80;;;;;;482494;246;1099;-68
2021/03/20 04:44:05;;;;;;;;;;;19.10;27.80;;;;;;482471;246;1065;-68
2021/03/20 04:46:06;;;;;;;;;;;19.10;27.80;;;;;;482382;247;1172;-68
2021/03/20 04:48:07;;;;;;;;;;;19.10;27.80;;;;;;482423;245;1180;-68
2021/03/20 04:50:09;;;;;;;;;;;19.10;27.90;;;;;;482378;246;1160;-68
2021/03/20 04:52:10;;;;;;;;;;;19.20;27.80;;;;;;482397;245;2184;-68
2021/03/20 04:54:11;;;;;;;;;;;19.20;27.80;;;;;;482540;246;1038;-69
2021/03/20 04:56:12;;;;;;;;;;;19.10;27.90;;;;;;482388;247;1284;-68
2021/03/20 04:58:14;;;;;;;;;;;19.10;27.90;;;;;;482330;247;1449;-68
2021/03/20 05:00:15;;;;;;;;;;;19.00;28.00;;;;;;482514;246;1230;-68
2021/03/20 05:02:17;;;;;;;;;;;19.10;28.00;;;;;;482387;246;1252;-68
2021/03/20 05:04:18;;;;;;;;;;;19.10;28.00;;;;;;482410;247;1095;-68
2021/03/20 05:06:19;;;;;;;;;;;19.10;28.00;;;;;;482430;246;1148;-68
2021/03/20 05:08:20;;;;;;;;;;;19.10;27.90;;;;;;482466;246;1197;-68
2021/03/20 05:10:22;;;;;;;;;;;19.10;27.90;;;;;;482399;247;1179;-68
2021/03/20 05:12:26;;;;;;;;;;;19.10;28.00;;;;;;482515;246;2201;-68
2021/03/20 05:14:24;;;;;;;;;;;19.10;27.90;;;;;;482398;245;1340;-67
2021/03/20 05:16:26;;;;;;;;;;;19.10;28.00;;;;;;482454;245;1143;-68
2021/03/20 05:18:27;;;;;;;;;;;19.00;28.00;;;;;;482613;246;1087;-68
2021/03/20 05:20:28;;;;;;;;;;;19.00;28.10;;;;;;482508;246;1144;-68
2021/03/20 05:22:29;;;;;;;;;;;19.00;28.10;;;;;;482388;247;1187;-68
2021/03/20 05:24:31;;;;;;;;;;;18.90;28.00;;;;;;482412;246;1053;-69
2021/03/20 05:26:32;;;;;;;;;;;18.90;28.00;;;;;;482418;246;1155;-68
2021/03/20 05:28:33;;;;;;;;;;;18.90;28.00;;;;;;482414;246;1067;-68
2021/03/20 05:30:34;;;;;;;;;;;19.00;28.00;;;;;;482458;246;1066;-68
2021/03/20 05:32:36;;;;;;;;;;;19.00;28.00;;;;;;482392;247;2190;-68
2021/03/20 05:34:37;;;;;;;;;;;19.00;28.00;;;;;;482376;247;1098;-68
2021/03/20 05:36:38;;;;;;;;;;;19.00;27.90;;;;;;482322;245;1180;-69
2021/03/20 05:38:40;;;;;;;;;;;19.00;27.80;;;;;;482453;246;1111;-68
2021/03/20 05:40:41;;;;;;;;;;;19.00;27.90;;;;;;482434;247;1193;-68
2021/03/20 05:42:42;;;;;;;;;;;19.00;27.80;;;;;;482386;246;1175;-68
2021/03/20 05:44:44;;;;;;;;;;;19.10;27.80;;;;;;482387;246;1137;-68
2021/03/20 05:46:45;;;;;;;;;;;19.10;27.80;;;;;;482319;246;1180;-68
2021/03/20 05:48:46;;;;;;;;;;;19.00;27.70;;;;;;482582;246;1088;-67
2021/03/20 05:50:47;;;;;;;;;;;19.10;27.70;;;;;;482338;247;1222;-67
2021/03/20 05:52:49;;;;;;;;;;;19.10;27.70;;;;;;482408;247;2196;-67
2021/03/20 05:54:51;;;;;;;;;;;19.10;27.70;;;;;;482430;246;1220;-67
2021/03/20 05:56:52;;;;;;;;;;;19.00;27.60;;;;;;482326;246;1201;-67
2021/03/20 05:58:54;;;;;;;;;;;19.10;27.50;;;;;;482487;246;1039;-67
2021/03/20 06:00:55;;;;;;;;;;;19.10;27.50;;;;;;482505;246;1047;-67
2021/03/20 06:02:56;;;;;;;;;;;19.10;27.50;;;;;;482397;246;1038;-67
2021/03/20 06:04:57;;;;;;;;;;;19.10;27.50;;;;;;482423;246;1169;-67
2021/03/20 06:06:59;;;;;;;;;;;19.00;27.50;;;;;;482355;247;1061;-67
2021/03/20 06:09:00;;;;;;;;;;;19.10;27.50;;;;;;482454;247;1064;-67
2021/03/20 06:11:01;;;;;;;;;;;19.10;27.40;;;;;;482356;247;2196;-67
2021/03/20 06:13:03;;;;;;;;;;;19.10;27.40;;;;;;482429;246;1185;-67
2021/03/20 06:15:04;;;;;;;;;;;19.10;27.30;;;;;;482394;245;1057;-67
2021/03/20 06:17:05;;;;;;;;;;;19.00;27.40;;;;;;482375;247;1127;-68
2021/03/20 06:19:07;;;;;;;;;;;19.00;27.40;;;;;;482355;247;1197;-68
2021/03/20 06:21:08;;;;;;;;;;;19.00;27.40;;;;;;482355;246;1259;-68
2021/03/20 06:23:10;;;;;;;;;;;19.00;27.40;;;;;;482498;246;1162;-67
2021/03/20 06:25:11;;;;;;;;;;;19.00;27.40;;;;;;482601;246;1076;-67
2021/03/20 06:27:13;;;;;;;;;;;19.00;27.40;;;;;;482531;247;1107;-67
2021/03/20 06:29:14;;;;;;;;;;;18.90;27.40;;;;;;482391;246;1057;-68
2021/03/20 06:31:15;;;;;;;;;;;19.00;27.40;;;;;;482400;246;2121;-68
2021/03/20 06:33:18;;;;;;;;;;;18.90;27.30;;;;;;482515;246;1051;-67
2021/03/20 06:35:18;;;;;;;;;;;18.90;27.30;;;;;;482565;247;1435;-67
2021/03/20 06:37:19;;;;;;;;;;;19.00;27.30;;;;;;482416;246;1086;-68
2021/03/20 06:39:20;;;;;;;;;;;19.00;27.20;;;;;;482568;246;1152;-68
2021/03/20 06:41:22;;;;;;;;;;;19.00;27.30;;;;;;482505;246;1102;-68
2021/03/20 06:43:23;;;;;;;;;;;19.00;27.30;;;;;;482450;247;1162;-68
2021/03/20 06:45:24;;;;;;;;;;;19.00;27.20;;;;;;482313;247;1091;-68
2021/03/20 06:47:25;;;;;;;;;;;19.00;27.30;;;;;;482462;246;1143;-68
2021/03/20 06:49:27;;;;;;;;;;;18.90;27.20;;;;;;482405;246;1054;-68
2021/03/20 06:51:28;;;;;;;;;;;19.00;27.20;;;;;;482376;246;2149;-68
2021/03/20 06:53:29;;;;;;;;;;;19.00;27.20;;;;;;482385;245;1249;-68
2021/03/20 06:55:31;;;;;;;;;;;19.00;27.30;;;;;;482425;246;1312;-68
2021/03/20 06:57:32;;;;;;;;;;;19.00;27.20;;;;;;482372;245;1368;-68
2021/03/20 06:59:33;;;;;;;;;;;19.00;27.20;;;;;;482603;246;1184;-68
2021/03/20 07:01:34;;;;;;;;;;;18.90;27.20;;;;;;482499;246;1074;-68
2021/03/20 07:03:36;;;;;;;;;;;19.00;27.20;;;;;;482505;246;1034;-68
2021/03/20 07:05:37;;;;;;;;;;;19.00;27.20;;;;;;482540;246;1092;-68
2021/03/20 07:07:38;;;;;;;;;;;19.00;27.20;;;;;;482356;246;1055;-68
2021/03/20 07:09:39;;;;;;;;;;;19.10;27.10;;;;;;482468;246;1050;-68
2021/03/20 07:11:41;;;;;;;;;;;19.10;27.10;;;;;;482370;247;2187;-68
2021/03/20 07:13:42;;;;;;;;;;;19.10;27.10;;;;;;482461;247;1186;-68
2021/03/20 07:15:43;;;;;;;;;;;19.10;27.10;;;;;;482412;246;1241;-68
2021/03/20 07:17:45;;;;;;;;;;;19.00;27.10;;;;;;482535;246;1136;-68
2021/03/20 07:19:46;;;;;;;;;;;19.10;27.10;;;;;;482472;247;1034;-68
2021/03/20 07:21:47;;;;;;;;;;;19.10;27.10;;;;;;482377;246;1219;-68
2021/03/20 07:23:48;;;;;;;;;;;19.10;27.00;;;;;;482539;246;1038;-68
2021/03/20 07:25:50;;;;;;;;;;;19.20;27.00;;;;;;482413;246;1222;-68
2021/03/20 07:27:51;;;;;;;;;;;19.10;27.00;;;;;;482361;247;1203;-68
2021/03/20 07:29:52;;;;;;;;;;;19.20;27.00;;;;;;482509;247;1060;-68
2021/03/20 07:31:54;;;;;;;;;;;19.10;27.00;;;;;;482531;247;2220;-68
2021/03/20 07:33:55;;;;;;;;;;;19.20;27.00;;;;;;482343;245;1063;-68
2021/03/20 07:35:56;;;;;;;;;;;19.10;26.90;;;;;;482542;246;1177;-68
2021/03/20 07:37:57;;;;;;;;;;;19.20;26.90;;;;;;482562;246;1148;-68
2021/03/20 07:39:59;;;;;;;;;;;19.10;26.90;;;;;;482722;246;1157;-68
2021/03/20 07:42:00;;;;;;;;;;;19.10;27.00;;;;;;482349;246;1183;-68
2021/03/20 07:44:01;;;;;;;;;;;19.10;27.00;;;;;;482388;247;1169;-68
2021/03/20 07:46:02;;;;;;;;;;;19.10;27.00;;;;;;482366;246;1195;-68
2021/03/20 07:48:04;;;;;;;;;;;19.00;27.00;;;;;;482356;247;1098;-68
2021/03/20 07:50:05;;;;;;;;;;;19.10;27.00;;;;;;482395;246;1052;-68
2021/03/20 07:52:06;;;;;;;;;;;19.00;27.00;;;;;;482335;247;2201;-68
2021/03/20 07:54:08;;;;;;;;;;;19.10;27.10;;;;;;482560;247;1027;-68
2021/03/20 07:56:09;;;;;;;;;;;19.10;27.00;;;;;;482331;244;1224;-68
2021/03/20 07:58:10;;;;;;;;;;;19.10;27.00;;;;;;482558;245;1163;-68
2021/03/20 08:00:11;;;;;;;;;;;19.10;27.00;;;;;;482403;247;1140;-68
2021/03/20 08:02:13;;;;;;;;;;;19.10;27.00;;;;;;482360;247;1063;-68
2021/03/20 08:04:14;;;;;;;;;;;19.10;27.00;;;;;;482391;246;1027;-68
2021/03/20 08:06:15;;;;;;;;;;;19.10;27.10;;;;;;482341;246;1070;-68
2021/03/20 08:08:17;;;;;;;;;;;19.10;27.00;;;;;;482455;246;1085;-68
2021/03/20 08:10:18;;;;;;;;;;;19.10;27.00;;;;;;482309;247;1117;-68
2021/03/20 08:12:19;;;;;;;;;;;19.20;27.00;;;;;;482393;246;2157;-68
2021/03/20 08:14:21;;;;;;;;;;;19.20;27.00;;;;;;482344;246;1164;-68
2021/03/20 08:16:22;;;;;;;;;;;19.10;27.00;;;;;;482349;246;1227;-68
2021/03/20 08:18:23;;;;;;;;;;;19.10;27.00;;;;;;482367;247;1059;-68
2021/03/20 08:20:24;;;;;;;;;;;19.10;27.00;;;;;;482349;245;1103;-68
2021/03/20 08:22:26;;;;;;;;;;;19.10;27.10;;;;;;482358;247;1215;-68
2021/03/20 08:24:27;;;;;;;;;;;19.10;27.00;;;;;;482375;247;1027;-68
2021/03/20 08:26:28;;;;;;;;;;;19.10;27.00;;;;;;482486;246;1180;-68
2021/03/20 08:28:30;;;;;;;;;;;19.10;27.00;;;;;;482601;247;1193;-68
2021/03/20 08:30:31;;;;;;;;;;;19.10;27.00;;;;;;482478;246;1248;-68
2021/03/20 08:32:32;;;;;;;;;;;19.10;27.00;;;;;;482617;246;2137;-68
2021/03/20 08:34:34;;;;;;;;;;;19.10;27.00;;;;;;482588;246;1018;-68
2021/03/20 08:36:35;;;;;;;;;;;19.10;27.00;;;;;;482453;246;1178;-68
2021/03/20 08:38:36;;;;;;;;;;;19.20;27.00;;;;;;482405;246;1039;-68
2021/03/20 08:40:37;;;;;;;;;;;19.10;27.00;;;;;;482452;246;1145;-68
2021/03/20 08:42:39;;;;;;;;;;;19.10;27.00;;;;;;482597;245;1085;-68
2021/03/20 08:44:40;;;;;;;;;;;19.20;27.00;;;;;;482473;246;1238;-68
2021/03/20 08:46:41;;;;;;;;;;;19.20;26.90;;;;;;482413;246;1419;-68
2021/03/20 08:48:43;;;;;;;;;;;19.10;26.90;;;;;;482413;246;1073;-68
2021/03/20 08:50:44;;;;;;;;;;;19.10;27.00;;;;;;482350;246;1079;-68
2021/03/20 08:52:45;;;;;;;;;;;19.10;27.00;;;;;;482569;246;2145;-68
2021/03/20 08:54:47;;;;;;;;;;;19.10;27.00;;;;;;482421;246;1035;-68
2021/03/20 08:56:48;;;;;;;;;;;19.10;27.10;;;;;;482512;246;1219;-68
2021/03/20 08:58:49;;;;;;;;;;;19.00;27.10;;;;;;482409;246;1158;-68
2021/03/20 09:00:50;;;;;;;;;;;19.10;27.00;;;;;;482319;247;1039;-68
2021/03/20 09:02:52;;;;;;;;;;;19.20;27.00;;;;;;482406;247;1169;-68
2021/03/20 09:04:53;;;;;;;;;;;19.10;27.00;;;;;;482542;246;1136;-68
2021/03/20 09:06:55;;;;;;;;;;;19.10;26.90;;;;;;482379;246;1162;-68
2021/03/20 09:08:56;;;;;;;;;;;19.10;26.90;;;;;;482547;246;1044;-68
2021/03/20 09:10:57;;;;;;;;;;;19.10;26.90;;;;;;482390;246;1312;-68
2021/03/20 09:12:59;;;;;;;;;;;19.10;27.00;;;;;;482405;246;2141;-68
2021/03/20 09:15:00;;;;;;;;;;;19.10;26.90;;;;;;482455;247;1201;-68
2021/03/20 09:17:01;;;;;;;;;;;19.10;26.90;;;;;;482535;247;1141;-68
2021/03/20 09:19:02;;;;;;;;;;;19.10;26.80;;;;;;482457;247;1076;-68
2021/03/20 09:21:04;;;;;;;;;;;19.10;26.80;;;;;;482336;247;1078;-68
2021/03/20 09:23:05;;;;;;;;;;;19.20;26.80;;;;;;482672;247;1196;-68
2021/03/20 09:25:06;;;;;;;;;;;19.20;26.80;;;;;;482528;245;1120;-68
2021/03/20 09:27:09;;;;;;;;;;;19.10;26.80;;;;;;482397;246;1027;-68
2021/03/20 09:29:09;;;;;;;;;;;19.20;26.80;;;;;;482280;247;1643;-68
2021/03/20 09:31:10;;;;;;;;;;;19.10;26.80;;;;;;482648;247;1057;-68
2021/03/20 09:33:11;;;;;;;;;;;19.20;26.70;;;;;;482410;246;2153;-68
2021/03/20 09:35:13;;;;;;;;;;;19.20;26.70;;;;;;482315;247;1057;-68
2021/03/20 09:37:14;;;;;;;;;;;19.20;26.70;;;;;;482358;247;1129;-68
2021/03/20 09:39:15;;;;;;;;;;;19.20;26.70;;;;;;482437;246;1054;-68
2021/03/20 09:41:16;;;;;;;;;;;19.20;26.70;;;;;;482572;246;1228;-68
2021/03/20 09:43:18;;;;;;;;;;;19.10;26.60;;;;;;482394;246;1075;-68
2021/03/20 09:45:19;;;;;;;;;;;19.20;26.70;;;;;;482385;246;1270;-68
2021/03/20 09:47:20;;;;;;;;;;;19.10;26.60;;;;;;482253;247;1119;-68
2021/03/20 09:49:22;;;;;;;;;;;19.10;26.70;;;;;;482524;246;1222;-68
2021/03/20 09:51:23;;;;;;;;;;;19.20;26.70;;;;;;482320;247;1218;-68
2021/03/20 09:53:24;;;;;;;;;;;19.20;26.70;;;;;;482443;246;2134;-67
2021/03/20 09:55:25;;;;;;;;;;;19.10;26.80;;;;;;482409;245;1093;-67
2021/03/20 09:57:27;;;;;;;;;;;19.10;26.80;;;;;;482385;246;1036;-67
2021/03/20 09:59:28;;;;;;;;;;;19.10;26.80;;;;;;482397;246;1125;-67
2021/03/20 10:01:29;;;;;;;;;;;19.10;26.80;;;;;;482408;246;1046;-68
2021/03/20 10:03:30;;;;;;;;;;;19.10;26.90;;;;;;482519;246;1069;-68
2021/03/20 10:05:32;;;;;;;;;;;19.20;26.90;;;;;;482635;246;1098;-68
2021/03/20 10:07:33;;;;;;;;;;;19.30;26.90;;;;;;482272;247;1273;-68
2021/03/20 10:09:34;;;;;;;;;;;19.20;26.80;;;;;;482346;246;1056;-68
2021/03/20 10:11:36;;;;;;;;;;;19.20;26.90;;;;;;482468;246;1150;-68
2021/03/20 10:13:37;;;;;;;;;;;19.20;26.90;;;;;;482262;247;2199;-68
2021/03/20 10:15:38;;;;;;;;;;;19.20;26.90;;;;;;482377;246;1155;-68
2021/03/20 10:17:39;;;;;;;;;;;19.20;27.00;;;;;;482269;246;1115;-68
2021/03/20 10:19:41;;;;;;;;;;;19.20;26.90;;;;;;482612;246;1122;-68
2021/03/20 10:21:42;;;;;;;;;;;19.10;26.90;;;;;;482312;246;1211;-68
2021/03/20 10:23:43;;;;;;;;;;;19.10;27.00;;;;;;482542;247;1042;-68
2021/03/20 10:25:45;;;;;;;;;;;19.10;27.00;;;;;;482342;246;1203;-68
2021/03/20 10:27:46;;;;;;;;;;;19.10;27.00;;;;;;482424;246;1112;-68
2021/03/20 10:29:47;;;;;;;;;;;19.10;27.10;;;;;;482353;246;1175;-68
2021/03/20 10:31:50;;;;;;;;;;;19.10;27.00;;;;;;482309;246;1629;-68
2021/03/20 10:33:50;;;;;;;;;;;19.20;27.10;;;;;;482342;247;2134;-68
2021/03/20 10:35:51;;;;;;;;;;;19.10;27.10;;;;;;482340;245;1191;-68
2021/03/20 10:37:52;;;;;;;;;;;19.10;27.10;;;;;;482422;245;1134;-68
2021/03/20 10:39:53;;;;;;;;;;;19.10;27.10;;;;;;482362;246;1195;-68
2021/03/20 10:41:55;;;;;;;;;;;19.10;27.10;;;;;;482392;245;1183;-68
2021/03/20 10:43:56;;;;;;;;;;;19.00;27.10;;;;;;482404;246;1068;-68
2021/03/20 10:45:57;;;;;;;;;;;19.00;27.10;;;;;;482341;246;1203;-68
2021/03/20 10:47:59;;;;;;;;;;;19.10;27.10;;;;;;482368;246;1019;-68
2021/03/20 10:50:00;;;;;;;;;;;19.10;27.00;;;;;;482469;247;1188;-68
2021/03/20 10:52:01;;;;;;;;;;;19.10;26.90;;;;;;482280;246;1459;-68
2021/03/20 10:54:02;;;;;;;;;;;19.10;27.00;;;;;;482390;246;2145;-68
2021/03/20 10:56:04;;;;;;;;;;;19.10;26.90;;;;;;482259;247;1173;-68
2021/03/20 10:58:05;;;;;;;;;;;19.10;27.00;;;;;;482297;246;1053;-68
2021/03/20 11:00:06;;;;;;;;;;;19.10;26.90;;;;;;482478;246;1061;-68
2021/03/20 11:02:08;;;;;;;;;;;19.20;26.90;;;;;;482240;245;1205;-68
2021/03/20 11:04:09;;;;;;;;;;;19.20;26.70;;;;;;482356;247;1099;-68
2021/03/20 11:06:10;;;;;;;;;;;19.20;26.70;;;;;;482306;247;1228;-68
2021/03/20 11:08:11;;;;;;;;;;;19.20;26.70;;;;;;482324;246;1284;-68
2021/03/20 11:10:13;;;;;;;;;;;19.20;26.70;;;;;;482351;245;1057;-68
2021/03/20 11:12:14;;;;;;;;;;;19.20;26.70;;;;;;482341;247;1204;-68
2021/03/20 11:14:15;;;;;;;;;;;19.20;26.80;;;;;;482438;246;2137;-68
2021/03/20 11:16:17;;;;;;;;;;;19.20;26.70;;;;;;482407;247;1163;-68
2021/03/20 11:18:18;;;;;;;;;;;19.20;26.60;;;;;;482421;246;1048;-68
2021/03/20 11:20:20;;;;;;;;;;;19.20;26.70;;;;;;482378;246;1293;-68
2021/03/20 11:22:21;;;;;;;;;;;19.30;26.60;;;;;;482307;246;1209;-68
2021/03/20 11:24:22;;;;;;;;;;;19.20;26.50;;;;;;482724;246;1044;-68
2021/03/20 11:26:23;;;;;;;;;;;19.30;26.40;;;;;;482447;246;1131;-68
2021/03/20 11:28:25;;;;;;;;;;;19.20;26.40;;;;;;482405;247;1085;-68
2021/03/20 11:30:26;;;;;;;;;;;19.20;26.40;;;;;;482415;247;1098;-68
2021/03/20 11:32:27;;;;;;;;;;;19.20;26.40;;;;;;482354;245;1111;-68
2021/03/20 11:34:29;;;;;;;;;;;19.20;26.50;;;;;;482571;246;2149;-68
2021/03/20 11:36:30;;;;;;;;;;;19.20;26.40;;;;;;482364;246;1146;-68
2021/03/20 11:38:31;;;;;;;;;;;19.30;26.30;;;;;;482391;246;1106;-68
2021/03/20 11:40:32;;;;;;;;;;;19.30;26.30;;;;;;482462;247;1295;-68
2021/03/20 11:42:37;;;;;;;;;;;19.30;26.20;;;;;;482293;246;1313;-67
2021/03/20 11:44:36;;;;;;;;;;;19.30;26.30;;;;;;482458;245;2282;-68
2021/03/20 11:46:38;;;;;;;;;;;19.30;26.20;;;;;;482495;246;1254;-68
2021/03/20 11:48:39;;;;;;;;;;;19.20;26.20;;;;;;482399;246;1036;-68
2021/03/20 11:50:40;;;;;;;;;;;19.30;26.20;;;;;;482363;246;1224;-68
2021/03/20 11:52:41;;;;;;;;;;;19.30;26.20;;;;;;482284;245;1288;-68
2021/03/20 11:54:43;;;;;;;;;;;19.30;26.20;;;;;;482350;246;2138;-68
2021/03/20 11:56:44;;;;;;;;;;;19.30;26.10;;;;;;482524;246;1303;-68